createdAt,value
2018-09-03T00:01:48.001Z,16.99
2018-09-03T00:04:16.489Z,16.90
2018-09-03T00:06:45.017Z,16.95
2018-09-03T00:09:13.548Z,16.94
2018-09-03T00:11:42.009Z,16.90
2018-09-03T00:14:10.481Z,17.02
2018-09-03T00:16:38.945Z,17.01
2018-09-03T00:19:07.529Z,17.12
2018-09-03T00:21:36.052Z,17.04
2018-09-03T00:24:04.522Z,17.13
2018-09-03T00:26:33.070Z,17.09
2018-09-03T00:29:01.637Z,17.04
2018-09-03T00:31:35.624Z,17.02
2018-09-03T00:34:09.473Z,17.00
2018-09-03T00:36:43.101Z,17.09
2018-09-03T00:40:20.581Z,17.04
2018-09-03T00:42:54.349Z,16.99
2018-09-03T00:45:27.938Z,16.94
2018-09-03T00:47:56.466Z,16.86
2018-09-03T00:50:24.994Z,16.82
2018-09-03T00:52:53.513Z,16.74
2018-09-03T00:55:22.070Z,16.67
2018-09-03T00:57:50.576Z,16.58
2018-09-03T01:00:19.065Z,16.53
2018-09-03T01:02:47.945Z,16.46
2018-09-03T01:05:16.425Z,16.37
2018-09-03T01:07:44.924Z,16.32
2018-09-03T01:10:13.446Z,16.22
2018-09-03T01:12:41.985Z,16.21
2018-09-03T01:15:10.490Z,16.27
2018-09-03T01:17:38.993Z,16.24
2018-09-03T01:20:07.631Z,16.19
2018-09-03T01:22:36.256Z,16.16
2018-09-03T01:25:04.781Z,16.15
2018-09-03T01:27:33.249Z,16.12
2018-09-03T01:30:01.800Z,16.07
2018-09-03T01:32:30.329Z,16.08
2018-09-03T01:34:58.837Z,16.15
2018-09-03T01:37:27.357Z,16.24
2018-09-03T01:39:56.096Z,16.26
2018-09-03T01:42:24.713Z,16.29
2018-09-03T01:44:53.190Z,16.33
2018-09-03T01:47:21.665Z,16.34
2018-09-03T01:49:50.261Z,16.51
2018-09-03T01:52:19.176Z,16.68
2018-09-03T01:54:47.656Z,16.67
2018-09-03T01:57:16.137Z,16.78
2018-09-03T01:59:44.650Z,16.76
2018-09-03T02:02:13.164Z,16.83
2018-09-03T02:04:41.716Z,16.84
2018-09-03T02:07:10.214Z,16.85
2018-09-03T02:09:38.666Z,16.78
2018-09-03T02:12:11.532Z,16.85
2018-09-03T02:14:40.579Z,16.92
2018-09-03T02:17:09.970Z,16.91
2018-09-03T02:19:38.575Z,16.92
2018-09-03T02:22:07.475Z,16.92
2018-09-03T02:24:36.237Z,16.99
2018-09-03T02:27:04.758Z,16.97
2018-09-03T02:29:33.299Z,17.00
2018-09-03T02:32:02.144Z,16.99
2018-09-03T02:34:30.644Z,16.98
2018-09-03T02:36:59.162Z,17.07
2018-09-03T02:39:27.671Z,17.08
2018-09-03T02:41:56.342Z,17.04
2018-09-03T02:44:24.865Z,17.08
2018-09-03T02:46:53.351Z,17.06
2018-09-03T02:49:21.854Z,17.03
2018-09-03T02:51:50.440Z,17.07
2018-09-03T02:54:18.925Z,17.06
2018-09-03T02:56:47.473Z,16.99
2018-09-03T02:59:15.974Z,16.99
2018-09-03T03:01:44.538Z,16.94
2018-09-03T03:04:13.170Z,17.01
2018-09-03T03:06:41.850Z,16.98
2018-09-03T03:09:10.529Z,16.99
2018-09-03T03:11:39.735Z,17.01
2018-09-03T03:14:08.352Z,17.00
2018-09-03T03:16:36.870Z,17.02
2018-09-03T03:19:05.570Z,17.03
2018-09-03T03:21:34.191Z,16.92
2018-09-03T03:24:02.697Z,16.87
2018-09-03T03:26:31.278Z,16.88
2018-09-03T03:28:59.854Z,16.88
2018-09-03T03:31:28.458Z,16.85
2018-09-03T03:33:57.116Z,16.88
2018-09-03T03:36:25.777Z,16.88
2018-09-03T03:38:54.422Z,16.91
2018-09-03T03:41:22.961Z,16.93
2018-09-03T03:43:51.428Z,16.90
2018-09-03T03:46:19.969Z,16.85
2018-09-03T03:48:48.474Z,16.82
2018-09-03T03:51:17.384Z,16.76
2018-09-03T03:53:45.954Z,16.81
2018-09-03T03:56:14.413Z,16.78
2018-09-03T03:58:42.950Z,16.82
2018-09-03T04:01:11.454Z,16.82
2018-09-03T04:03:39.940Z,16.70
2018-09-03T04:06:08.757Z,16.80
2018-09-03T04:08:37.266Z,16.72
2018-09-03T04:11:06.613Z,16.73
2018-09-03T04:13:35.154Z,16.73
2018-09-03T04:16:03.671Z,16.66
2018-09-03T04:18:32.161Z,16.58
2018-09-03T04:21:00.694Z,16.63
2018-09-03T04:23:29.437Z,16.60
2018-09-03T04:25:57.797Z,16.47
2018-09-03T04:28:26.301Z,16.34
2018-09-03T04:30:54.786Z,16.25
2018-09-03T04:33:23.521Z,16.22
2018-09-03T04:35:52.122Z,16.20
2018-09-03T04:38:21.042Z,16.18
2018-09-03T04:40:49.560Z,16.18
2018-09-03T04:43:18.095Z,16.23
2018-09-03T04:45:46.586Z,16.27
2018-09-03T04:48:15.121Z,16.30
2018-09-03T04:50:43.636Z,16.34
2018-09-03T04:53:12.207Z,16.33
2018-09-03T04:55:40.763Z,16.35
2018-09-03T04:58:09.250Z,16.35
2018-09-03T05:00:37.807Z,16.43
2018-09-03T05:03:06.445Z,16.44
2018-09-03T05:05:35.062Z,16.41
2018-09-03T05:08:03.635Z,16.48
2018-09-03T05:10:32.933Z,16.50
2018-09-03T05:13:01.492Z,16.57
2018-09-03T05:15:30.086Z,16.51
2018-09-03T05:17:58.953Z,16.60
2018-09-03T05:20:27.547Z,16.62
2018-09-03T05:22:56.811Z,16.67
2018-09-03T05:25:25.374Z,16.75
2018-09-03T05:27:53.888Z,16.79
2018-09-03T05:30:22.397Z,16.82
2018-09-03T05:32:50.913Z,16.90
2018-09-03T05:35:19.486Z,16.88
2018-09-03T05:37:48.005Z,16.97
2018-09-03T05:40:16.489Z,17.00
2018-09-03T05:42:45.404Z,17.11
2018-09-03T05:45:13.868Z,17.17
2018-09-03T05:47:42.430Z,17.27
2018-09-03T05:50:11.422Z,17.12
2018-09-03T05:52:39.906Z,17.03
2018-09-03T05:55:08.431Z,16.99
2018-09-03T05:57:36.980Z,16.99
2018-09-03T06:00:06.402Z,17.05
2018-09-03T06:02:34.902Z,17.09
2018-09-03T06:05:03.438Z,17.12
2018-09-03T06:07:40.062Z,17.14
2018-09-03T06:10:08.584Z,17.18
2018-09-03T06:12:37.279Z,17.28
2018-09-03T06:15:06.026Z,17.31
2018-09-03T06:17:34.557Z,17.38
2018-09-03T06:20:03.051Z,17.37
2018-09-03T06:22:31.565Z,17.40
2018-09-03T06:25:00.044Z,17.42
2018-09-03T06:27:28.555Z,17.43
2018-09-03T06:29:57.100Z,17.49
2018-09-03T06:32:25.823Z,17.59
2018-09-03T06:34:54.661Z,17.54
2018-09-03T06:37:24.042Z,17.50
2018-09-03T06:39:52.573Z,17.54
2018-09-03T06:42:21.219Z,17.60
2018-09-03T06:44:49.784Z,17.64
2018-09-03T06:47:18.330Z,17.70
2018-09-03T06:49:46.923Z,17.84
2018-09-03T06:52:15.452Z,17.84
2018-09-03T06:54:44.081Z,17.82
2018-09-03T06:57:12.565Z,17.76
2018-09-03T06:59:41.132Z,17.87
2018-09-03T07:02:09.692Z,18.07
2018-09-03T07:04:38.197Z,18.21
2018-09-03T07:07:07.198Z,18.33
2018-09-03T07:09:35.794Z,18.34
2018-09-03T07:12:04.322Z,18.20
2018-09-03T07:14:32.854Z,18.12
2018-09-03T07:17:01.402Z,18.13
2018-09-03T07:19:29.887Z,18.10
2018-09-03T07:21:58.443Z,18.05
2018-09-03T07:24:26.933Z,17.99
2018-09-03T07:26:55.558Z,18.03
2018-09-03T07:29:24.105Z,18.22
2018-09-03T07:31:52.594Z,18.45
2018-09-03T07:34:22.037Z,18.47
2018-09-03T07:36:50.580Z,18.19
2018-09-03T07:39:19.078Z,18.13
2018-09-03T07:41:47.600Z,18.31
2018-09-03T07:44:16.127Z,18.79
2018-09-03T07:46:44.634Z,19.33
2018-09-03T07:49:13.703Z,19.40
2018-09-03T07:51:42.206Z,19.27
2018-09-03T07:54:10.692Z,19.47
2018-09-03T07:56:39.289Z,19.47
2018-09-03T07:59:07.761Z,19.51
2018-09-03T08:01:36.277Z,19.46
2018-09-03T08:04:04.819Z,19.38
2018-09-03T08:06:33.489Z,19.22
2018-09-03T08:09:02.246Z,19.18
2018-09-03T08:11:30.755Z,19.25
2018-09-03T08:13:59.284Z,19.17
2018-09-03T08:16:27.833Z,19.22
2018-09-03T08:18:56.446Z,19.32
2018-09-03T08:21:24.933Z,19.45
2018-09-03T08:23:53.522Z,19.35
2018-09-03T08:26:22.051Z,19.18
2018-09-03T08:28:50.549Z,19.51
2018-09-03T08:31:19.095Z,19.87
2018-09-03T08:33:47.579Z,19.80
2018-09-03T08:36:16.112Z,19.85
2018-09-03T08:38:44.803Z,19.59
2018-09-03T08:41:13.313Z,19.43
2018-09-03T08:43:41.865Z,19.11
2018-09-03T08:46:10.424Z,19.15
2018-09-03T08:48:38.921Z,19.25
2018-09-03T08:51:07.454Z,19.44
2018-09-03T08:53:36.316Z,19.53
2018-09-03T08:56:04.958Z,19.84
2018-09-03T08:58:33.486Z,20.23
2018-09-03T09:01:02.083Z,20.72
2018-09-03T09:03:35.938Z,20.98
2018-09-03T09:06:04.654Z,20.76
2018-09-03T09:08:33.150Z,20.55
2018-09-03T09:11:01.634Z,20.51
2018-09-03T09:13:30.545Z,20.50
2018-09-03T09:15:59.123Z,20.49
2018-09-03T09:18:27.645Z,20.39
2018-09-03T09:20:56.150Z,20.68
2018-09-03T09:23:24.694Z,21.00
2018-09-03T09:25:53.209Z,20.93
2018-09-03T09:28:21.789Z,20.96
2018-09-03T09:30:50.394Z,21.29
2018-09-03T09:33:18.926Z,21.27
2018-09-03T09:35:47.465Z,21.43
2018-09-03T09:38:15.973Z,21.67
2018-09-03T09:40:44.478Z,21.43
2018-09-03T09:43:13.041Z,21.14
2018-09-03T09:45:41.922Z,21.78
2018-09-03T09:48:10.464Z,21.62
2018-09-03T09:50:39.129Z,21.78
2018-09-03T09:53:07.698Z,22.15
2018-09-03T09:55:36.246Z,22.15
2018-09-03T09:58:04.799Z,22.27
2018-09-03T10:00:38.474Z,22.06
2018-09-03T10:03:07.046Z,21.78
2018-09-03T10:05:35.574Z,22.20
2018-09-03T10:08:04.131Z,22.36
2018-09-03T10:10:32.700Z,22.93
2018-09-03T10:13:01.193Z,22.87
2018-09-03T10:15:29.718Z,22.94
2018-09-03T10:17:58.211Z,23.02
2018-09-03T10:20:26.701Z,23.09
2018-09-03T10:22:55.237Z,22.75
2018-09-03T10:25:23.904Z,22.70
2018-09-03T10:27:52.429Z,22.86
2018-09-03T10:30:21.003Z,23.13
2018-09-03T10:32:49.585Z,22.74
2018-09-03T10:35:19.296Z,22.19
2018-09-03T10:37:47.808Z,22.27
2018-09-03T10:40:16.494Z,22.70
2018-09-03T10:42:44.983Z,22.94
2018-09-03T10:45:13.549Z,23.20
2018-09-03T10:47:42.140Z,23.17
2018-09-03T10:50:10.587Z,22.84
2018-09-03T10:52:39.102Z,22.91
2018-09-03T10:55:08.233Z,22.71
2018-09-03T10:57:36.813Z,23.20
2018-09-03T11:00:05.852Z,23.26
2018-09-03T11:02:34.728Z,23.45
2018-09-03T11:05:03.321Z,23.39
2018-09-03T11:07:31.860Z,23.34
2018-09-03T11:10:00.359Z,23.47
2018-09-03T11:12:28.927Z,23.76
2018-09-03T11:14:57.430Z,23.88
2018-09-03T11:17:26.036Z,24.31
2018-09-03T11:19:57.835Z,24.30
2018-09-03T11:22:27.391Z,24.25
2018-09-03T11:24:56.117Z,24.32
2018-09-03T11:27:24.655Z,23.94
2018-09-03T11:29:53.543Z,23.99
2018-09-03T11:32:22.091Z,24.26
2018-09-03T11:34:50.611Z,24.25
2018-09-03T11:37:19.487Z,24.30
2018-09-03T11:39:48.014Z,24.51
2018-09-03T11:42:16.493Z,24.76
2018-09-03T11:44:45.046Z,24.77
2018-09-03T11:47:13.593Z,24.72
2018-09-03T11:49:42.163Z,25.04
2018-09-03T11:52:10.666Z,25.37
2018-09-03T11:54:40.171Z,25.55
2018-09-03T11:57:08.739Z,25.36
2018-09-03T11:59:37.225Z,25.29
2018-09-03T12:02:06.546Z,25.63
2018-09-03T12:04:35.063Z,25.23
2018-09-03T12:07:03.634Z,25.19
2018-09-03T12:09:32.236Z,25.39
2018-09-03T12:12:00.732Z,25.33
2018-09-03T12:14:31.678Z,25.94
2018-09-03T12:17:00.539Z,26.03
2018-09-03T12:19:29.437Z,25.94
2018-09-03T12:21:57.941Z,25.87
2018-09-03T12:24:26.434Z,26.06
2018-09-03T12:26:54.953Z,26.00
2018-09-03T12:29:23.488Z,25.40
2018-09-03T12:31:52.119Z,25.11
2018-09-03T12:34:20.640Z,25.22
2018-09-03T12:36:49.189Z,24.92
2018-09-03T12:39:17.872Z,24.99
2018-09-03T12:41:46.497Z,25.25
2018-09-03T12:44:15.062Z,25.45
2018-09-03T12:46:43.716Z,25.45
2018-09-03T12:49:12.252Z,25.56
2018-09-03T12:51:40.910Z,25.81
2018-09-03T12:54:09.463Z,25.67
2018-09-03T12:56:37.999Z,25.58
2018-09-03T12:59:06.603Z,25.81
2018-09-03T13:01:35.291Z,25.80
2018-09-03T13:04:03.934Z,25.78
2018-09-03T13:06:32.802Z,25.75
2018-09-03T13:09:01.323Z,25.90
2018-09-03T13:11:29.829Z,26.22
2018-09-03T13:13:58.347Z,26.14
2018-09-03T13:16:26.927Z,26.15
2018-09-03T13:18:55.506Z,26.48
2018-09-03T13:21:24.026Z,26.69
2018-09-03T13:23:52.670Z,26.46
2018-09-03T13:26:21.226Z,25.61
2018-09-03T13:28:49.749Z,25.19
2018-09-03T13:31:18.310Z,25.40
2018-09-03T13:33:46.970Z,25.17
2018-09-03T13:36:15.572Z,25.12
2018-09-03T13:38:44.025Z,25.28
2018-09-03T13:41:12.583Z,25.35
2018-09-03T13:43:41.106Z,25.65
2018-09-03T13:46:09.700Z,25.65
2018-09-03T13:48:38.329Z,25.96
2018-09-03T13:51:06.480Z,25.95
2018-09-03T13:53:35.065Z,25.84
2018-09-03T13:56:03.596Z,26.03
2018-09-03T13:58:32.117Z,26.38
2018-09-03T14:01:00.735Z,26.44
2018-09-03T14:03:29.244Z,26.18
2018-09-03T14:05:58.223Z,26.38
2018-09-03T14:08:26.709Z,26.55
2018-09-03T14:10:55.232Z,27.10
2018-09-03T14:13:23.819Z,26.81
2018-09-03T14:15:52.375Z,26.79
2018-09-03T14:18:20.937Z,26.40
2018-09-03T14:20:49.589Z,26.39
2018-09-03T14:23:18.186Z,26.11
2018-09-03T14:25:46.685Z,26.01
2018-09-03T14:28:15.781Z,26.40
2018-09-03T14:30:44.398Z,26.60
2018-09-03T14:33:13.190Z,26.67
2018-09-03T14:35:41.690Z,26.48
2018-09-03T14:38:10.210Z,26.02
2018-09-03T14:40:38.805Z,25.97
2018-09-03T14:43:07.861Z,25.90
2018-09-03T14:45:36.389Z,26.04
2018-09-03T14:48:05.071Z,26.29
2018-09-03T14:50:33.611Z,26.37
2018-09-03T14:53:02.139Z,26.40
2018-09-03T14:55:30.671Z,26.56
2018-09-03T14:57:59.231Z,26.80
2018-09-03T15:00:28.186Z,26.77
2018-09-03T15:02:57.364Z,26.78
2018-09-03T15:05:25.893Z,26.87
2018-09-03T15:07:54.502Z,26.75
2018-09-03T15:10:23.659Z,26.71
2018-09-03T15:12:52.616Z,26.62
2018-09-03T15:15:21.150Z,26.48
2018-09-03T15:17:49.644Z,26.42
2018-09-03T15:20:18.174Z,26.50
2018-09-03T15:22:47.489Z,26.42
2018-09-03T15:25:16.027Z,26.21
2018-09-03T15:27:44.560Z,26.25
2018-09-03T15:30:13.173Z,26.42
2018-09-03T15:32:41.759Z,26.54
2018-09-03T15:35:10.352Z,26.30
2018-09-03T15:37:39.805Z,26.34
2018-09-03T15:40:08.347Z,26.25
2018-09-03T15:42:36.894Z,26.03
2018-09-03T15:45:05.520Z,26.03
2018-09-03T15:47:34.507Z,25.99
2018-09-03T15:50:03.027Z,25.84
2018-09-03T15:52:31.568Z,25.69
2018-09-03T15:55:00.938Z,25.64
2018-09-03T15:57:29.490Z,25.59
2018-09-03T15:59:58.397Z,25.55
2018-09-03T16:02:26.926Z,25.49
2018-09-03T16:04:55.459Z,25.47
2018-09-03T16:07:24.010Z,25.57
2018-09-03T16:09:52.542Z,25.83
2018-09-03T16:12:21.107Z,25.95
2018-09-03T16:14:49.604Z,26.29
2018-09-03T16:17:18.196Z,26.41
2018-09-03T16:19:46.715Z,26.43
2018-09-03T16:22:15.268Z,26.44
2018-09-03T16:24:43.839Z,26.33
2018-09-03T16:27:12.452Z,26.23
2018-09-03T16:29:40.959Z,26.19
2018-09-03T16:32:09.831Z,26.21
2018-09-03T16:34:38.594Z,26.05
2018-09-03T16:37:07.353Z,25.90
2018-09-03T16:39:35.922Z,25.77
2018-09-03T16:42:04.532Z,25.89
2018-09-03T16:44:33.168Z,25.88
2018-09-03T16:47:01.707Z,25.80
2018-09-03T16:49:30.258Z,25.78
2018-09-03T16:51:58.821Z,25.75
2018-09-03T16:54:27.377Z,25.73
2018-09-03T16:56:55.882Z,25.68
2018-09-03T16:59:24.489Z,25.64
2018-09-03T17:01:52.990Z,25.62
2018-09-03T17:04:21.571Z,25.68
2018-09-03T17:06:50.124Z,25.68
2018-09-03T17:09:18.707Z,25.67
2018-09-03T17:11:47.199Z,25.57
2018-09-03T17:14:15.763Z,25.46
2018-09-03T17:16:44.435Z,25.40
2018-09-03T17:19:13.041Z,25.25
2018-09-03T17:21:41.522Z,25.14
2018-09-03T17:24:10.089Z,25.07
2018-09-03T17:26:38.656Z,24.90
2018-09-03T17:29:07.227Z,24.86
2018-09-03T17:31:35.711Z,24.89
2018-09-03T17:34:04.216Z,24.88
2018-09-03T17:36:32.776Z,24.75
2018-09-03T17:39:01.346Z,24.60
2018-09-03T17:41:29.867Z,24.56
2018-09-03T17:43:58.395Z,24.51
2018-09-03T17:46:26.889Z,24.56
2018-09-03T17:48:55.450Z,24.38
2018-09-03T17:51:23.943Z,24.04
2018-09-03T17:53:52.511Z,23.60
2018-09-03T17:56:21.023Z,23.45
2018-09-03T17:58:49.574Z,23.20
2018-09-03T18:01:18.457Z,23.15
2018-09-03T18:03:47.032Z,23.07
2018-09-03T18:06:15.625Z,22.96
2018-09-03T18:08:44.302Z,22.91
2018-09-03T18:11:12.851Z,22.87
2018-09-03T18:13:41.345Z,22.78
2018-09-03T18:16:09.895Z,22.66
2018-09-03T18:18:38.505Z,22.60
2018-09-03T18:21:07.058Z,22.53
2018-09-03T18:26:03.265Z,22.41
2018-09-03T18:28:31.758Z,22.28
2018-09-03T18:31:00.283Z,22.14
2018-09-03T18:33:28.835Z,22.00
2018-09-03T18:35:57.408Z,21.92
2018-09-03T18:38:25.914Z,21.94
2018-09-03T18:40:54.404Z,22.01
2018-09-03T18:43:23.011Z,21.93
2018-09-03T18:45:51.608Z,21.85
2018-09-03T18:48:20.151Z,21.82
2018-09-03T18:50:48.630Z,21.82
2018-09-03T18:53:17.146Z,21.75
2018-09-03T18:55:45.698Z,21.75
2018-09-03T18:58:14.245Z,21.76
2018-09-03T19:00:42.848Z,21.68
2018-09-03T19:03:11.375Z,21.68
2018-09-03T19:05:39.946Z,21.65
2018-09-03T19:08:08.451Z,21.62
2018-09-03T19:10:36.961Z,21.57
2018-09-03T19:13:05.475Z,21.51
2018-09-03T19:15:33.998Z,21.54
2018-09-03T19:18:02.561Z,21.46
2018-09-03T19:20:31.045Z,21.36
2018-09-03T19:22:59.583Z,21.23
2018-09-03T19:25:28.162Z,21.13
2018-09-03T19:27:56.642Z,20.99
2018-09-03T19:30:25.183Z,20.89
2018-09-03T19:32:53.743Z,20.85
2018-09-03T19:35:22.717Z,20.76
2018-09-03T19:37:51.250Z,20.75
2018-09-03T19:40:19.776Z,20.72
2018-09-03T19:42:48.297Z,20.80
2018-09-03T19:45:16.842Z,20.87
2018-09-03T19:47:45.342Z,20.88
2018-09-03T19:50:13.934Z,20.90
2018-09-03T19:52:42.795Z,20.80
2018-09-03T19:55:11.286Z,20.66
2018-09-03T19:57:39.749Z,20.54
2018-09-03T20:00:08.297Z,20.36
2018-09-03T20:02:36.812Z,20.35
2018-09-03T20:05:05.349Z,20.54
2018-09-03T20:07:33.934Z,20.66
2018-09-03T20:10:02.475Z,20.61
2018-09-03T20:12:31.362Z,20.66
2018-09-03T20:14:59.909Z,20.60
2018-09-03T20:17:28.410Z,20.66
2018-09-03T20:19:57.018Z,20.73
2018-09-03T20:22:25.545Z,20.79
2018-09-03T20:24:54.138Z,20.87
2018-09-03T20:27:22.641Z,20.92
2018-09-03T20:29:51.177Z,20.91
2018-09-03T20:32:19.685Z,20.88
2018-09-03T20:34:48.194Z,20.85
2018-09-03T20:37:17.058Z,20.96
2018-09-03T20:39:45.563Z,21.04
2018-09-03T20:42:14.090Z,21.05
2018-09-03T20:44:42.708Z,21.05
2018-09-03T20:47:11.147Z,21.04
2018-09-03T20:49:39.756Z,21.06
2018-09-03T20:52:08.254Z,21.03
2018-09-03T20:54:36.793Z,21.07
2018-09-03T20:57:05.362Z,21.04
2018-09-03T20:59:34.247Z,21.02
2018-09-03T21:02:02.771Z,21.03
2018-09-03T21:04:31.350Z,21.04
2018-09-03T21:06:59.958Z,21.01
2018-09-03T21:09:28.629Z,20.93
2018-09-03T21:11:57.190Z,20.93
2018-09-03T21:14:25.708Z,20.93
2018-09-03T21:16:54.251Z,20.84
2018-09-03T21:19:22.770Z,20.82
2018-09-03T21:21:51.356Z,20.76
2018-09-03T21:24:20.633Z,20.77
2018-09-03T21:26:49.133Z,20.78
2018-09-03T21:29:17.742Z,20.79
2018-09-03T21:31:46.275Z,20.81
2018-09-03T21:34:14.789Z,20.82
2018-09-03T21:36:43.463Z,20.81
2018-09-03T21:39:12.122Z,20.84
2018-09-03T21:41:40.622Z,20.84
2018-09-03T21:44:09.102Z,20.88
2018-09-03T21:46:37.685Z,20.91
2018-09-03T21:49:06.248Z,20.88
2018-09-03T21:51:34.750Z,20.93
2018-09-03T21:54:03.269Z,20.95
2018-09-03T21:56:31.753Z,20.94
2018-09-03T21:59:00.335Z,20.95
2018-09-03T22:01:28.842Z,20.88
2018-09-03T22:03:57.406Z,20.84
2018-09-03T22:06:25.930Z,20.86
2018-09-03T22:08:54.454Z,20.80
2018-09-03T22:11:23.331Z,20.77
2018-09-03T22:13:51.825Z,20.75
2018-09-03T22:16:20.376Z,20.80
2018-09-03T22:18:48.925Z,20.80
2018-09-03T22:21:17.458Z,20.78
2018-09-03T22:23:46.518Z,20.84
2018-09-03T22:26:15.137Z,20.84
2018-09-03T22:28:43.653Z,20.85
2018-09-03T22:31:12.613Z,20.91
2018-09-03T22:33:41.200Z,20.86
2018-09-03T22:36:09.689Z,20.84
2018-09-03T22:38:38.234Z,20.74
2018-09-03T22:41:07.206Z,20.79
2018-09-03T22:43:35.787Z,20.80
2018-09-03T22:46:04.350Z,20.82
2018-09-03T22:48:32.857Z,20.80
2018-09-03T22:51:01.362Z,20.93
2018-09-03T22:53:29.989Z,20.85
2018-09-03T22:55:58.502Z,20.85
2018-09-03T22:58:27.037Z,20.81
2018-09-03T23:00:56.488Z,20.74
2018-09-03T23:03:24.989Z,20.73
2018-09-03T23:05:53.498Z,20.68
2018-09-03T23:08:22.018Z,20.60
2018-09-03T23:10:50.535Z,20.36
2018-09-03T23:13:19.057Z,20.32
2018-09-03T23:15:52.175Z,20.28
2018-09-03T23:18:21.750Z,20.14
2018-09-03T23:20:50.240Z,20.09
2018-09-03T23:23:18.838Z,20.05
2018-09-03T23:25:47.843Z,19.94
2018-09-03T23:28:16.413Z,19.92
2018-09-03T23:30:45.006Z,19.79
2018-09-03T23:33:13.518Z,19.73
2018-09-03T23:35:41.965Z,19.66
2018-09-03T23:38:10.457Z,19.59
2018-09-03T23:40:38.993Z,19.50
2018-09-03T23:43:07.537Z,19.50
2018-09-03T23:45:36.066Z,19.47
2018-09-03T23:48:04.676Z,19.44
2018-09-03T23:50:33.172Z,19.40
2018-09-03T23:53:01.745Z,19.37
2018-09-03T23:55:30.256Z,19.35
2018-09-03T23:57:58.765Z,19.27
